Time,TemperatureF,DewpointF,PressureIn,WindDirection,WindDirectionDegrees,WindSpeedMPH,WindSpeedGustMPH,Humidity,HourlyPrecipIn,Conditions,Clouds,dailyrainin,SoftwareType,DateUTC
2013-08-25 00:00:00,60.0,55.8,30.34,West,276,0.0,1.0,86,0.00,,---,0.00,VWS V14.01,2013-08-25 04:00:00,
2013-08-25 00:01:00,57.7,55.1,30.35,West,276,0.0,0.0,91,0.00,,---,0.00,VWS V14.01,2013-08-25 04:01:00,
2013-08-25 00:02:00,57.5,55.2,30.35,West,276,0.0,0.0,92,0.00,,---,0.00,VWS V14.01,2013-08-25 04:02:00,
2013-08-25 00:07:00,57.2,54.9,30.35,West,276,0.0,0.0,92,0.00,,---,0.00,VWS V14.01,2013-08-25 04:07:00,
2013-08-25 00:12:00,57.0,55.0,30.35,West,276,0.0,0.0,93,0.00,,---,0.00,VWS V14.01,2013-08-25 04:12:00,
2013-08-25 00:17:00,56.9,55.2,30.35,West,276,0.0,0.0,94,0.00,,---,0.00,VWS V14.01,2013-08-25 04:17:00,
2013-08-25 00:22:00,56.8,55.4,30.34,West,276,0.0,0.0,95,0.00,,---,0.00,VWS V14.01,2013-08-25 04:22:00,
2013-08-25 00:27:00,57.0,55.3,30.34,SW,233,0.0,1.0,94,0.00,,---,0.00,VWS V14.01,2013-08-25 04:27:00,
2013-08-25 00:30:00,59.9,56.3,30.34,West,276,0.0,0.0,88,0.00,,---,0.00,VWS V14.01,2013-08-25 04:30:00,
2013-08-25 00:32:00,57.0,55.0,30.34,WSW,243,0.0,1.0,93,0.00,,---,0.00,VWS V14.01,2013-08-25 04:32:00,
2013-08-25 00:37:00,56.7,54.7,30.34,WSW,243,0.0,1.0,93,0.00,,---,0.00,VWS V14.01,2013-08-25 04:37:00,
2013-08-25 00:42:00,56.3,54.0,30.34,WSW,250,0.0,1.0,92,0.00,,---,0.00,VWS V14.01,2013-08-25 04:42:00,
2013-08-25 00:47:00,55.8,53.8,30.34,West,281,0.0,1.0,93,0.00,,---,0.00,VWS V14.01,2013-08-25 04:47:00,
2013-08-25 00:52:00,55.5,53.5,30.34,West,281,0.0,1.0,93,0.00,,---,0.00,VWS V14.01,2013-08-25 04:52:00,
2013-08-25 00:57:00,55.3,53.6,30.34,West,280,0.0,1.0,94,0.00,,---,0.00,VWS V14.01,2013-08-25 04:57:00,
2013-08-25 01:00:00,57.8,55.2,30.35,West,276,0.0,0.0,91,0.00,,---,0.00,VWS V14.01,2013-08-25 05:00:00,
2013-08-25 01:02:00,55.2,53.5,30.35,West,280,0.0,0.0,94,0.00,,---,0.00,VWS V14.01,2013-08-25 05:02:00,
2013-08-25 01:07:00,55.2,53.5,30.35,West,280,0.0,1.0,94,0.00,,---,0.00,VWS V14.01,2013-08-25 05:07:00,
2013-08-25 01:12:00,55.6,54.5,30.34,West,280,0.0,1.0,96,0.00,,---,0.00,VWS V14.01,2013-08-25 05:12:00,
2013-08-25 01:17:00,56.1,55.3,30.34,West,280,0.0,1.0,97,0.00,,---,0.00,VWS V14.01,2013-08-25 05:17:00,
2013-08-25 01:22:00,56.3,55.5,30.35,West,280,0.0,1.0,97,0.00,,---,0.00,VWS V14.01,2013-08-25 05:22:00,
2013-08-25 01:27:00,56.2,55.1,30.34,West,280,0.0,1.0,96,0.00,,---,0.00,VWS V14.01,2013-08-25 05:27:00,
2013-08-25 01:30:00,57.0,55.3,30.34,SW,233,0.0,1.0,94,0.00,,---,0.00,VWS V14.01,2013-08-25 05:30:00,
2013-08-25 01:32:00,55.7,54.3,30.35,West,280,0.0,0.0,95,0.00,,---,0.00,VWS V14.01,2013-08-25 05:32:00,
2013-08-25 01:37:00,55.0,53.3,30.35,WNW,283,0.0,1.0,94,0.00,,---,0.00,VWS V14.01,2013-08-25 05:37:00,
2013-08-25 01:42:00,54.7,53.0,30.34,WNW,283,0.0,1.0,94,0.00,,---,0.00,VWS V14.01,2013-08-25 05:42:00,
2013-08-25 01:47:00,54.5,53.1,30.34,WNW,283,0.0,1.0,95,0.00,,---,0.00,VWS V14.01,2013-08-25 05:47:00,
2013-08-25 01:52:00,54.5,53.1,30.34,WNW,283,0.0,1.0,95,0.00,,---,0.00,VWS V14.01,2013-08-25 05:52:00,
2013-08-25 01:57:00,55.0,54.2,30.34,WNW,283,0.0,1.0,97,0.00,,---,0.00,VWS V14.01,2013-08-25 05:57:00,
2013-08-25 02:00:00,55.3,53.6,30.34,West,280,0.0,1.0,94,0.00,,---,0.00,VWS V14.01,2013-08-25 06:00:00,
2013-08-25 02:02:00,55.4,54.6,30.34,WNW,283,0.0,1.0,97,0.00,,---,0.00,VWS V14.01,2013-08-25 06:02:00,
2013-08-25 02:07:00,55.1,54.0,30.34,WNW,283,0.0,1.0,96,0.00,,---,0.00,VWS V14.01,2013-08-25 06:07:00,
2013-08-25 02:12:00,54.7,53.3,30.34,WNW,285,0.0,1.0,95,0.00,,---,0.00,VWS V14.01,2013-08-25 06:12:00,
2013-08-25 02:17:00,54.3,52.9,30.34,WNW,285,0.0,1.0,95,0.00,,---,0.00,VWS V14.01,2013-08-25 06:17:00,
2013-08-25 02:22:00,53.9,52.5,30.34,WNW,287,0.0,1.0,95,0.00,,---,0.00,VWS V14.01,2013-08-25 06:22:00,
2013-08-25 02:27:00,53.7,52.6,30.35,West,262,0.0,1.0,96,0.00,,---,0.00,VWS V14.01,2013-08-25 06:27:00,
2013-08-25 02:30:00,56.0,54.9,30.34,West,280,0.0,1.0,96,0.00,,---,0.00,VWS V14.01,2013-08-25 06:30:00,
2013-08-25 02:32:00,53.6,52.5,30.35,West,262,0.0,1.0,96,0.00,,---,0.00,VWS V14.01,2013-08-25 06:32:00,
2013-08-25 02:37:00,53.8,53.0,30.35,West,262,0.0,1.0,97,0.00,,---,0.00,VWS V14.01,2013-08-25 06:37:00,
2013-08-25 02:42:00,54.0,53.2,30.35,West,262,0.0,1.0,97,0.00,,---,0.00,VWS V14.01,2013-08-25 06:42:00,
2013-08-25 02:47:00,54.0,53.2,30.35,West,262,0.0,1.0,97,0.00,,---,0.00,VWS V14.01,2013-08-25 06:47:00,
2013-08-25 02:52:00,53.7,52.6,30.35,West,262,0.0,1.0,96,0.00,,---,0.00,VWS V14.01,2013-08-25 06:52:00,
2013-08-25 02:57:00,53.5,52.4,30.35,West,262,0.0,1.0,96,0.00,,---,0.00,VWS V14.01,2013-08-25 06:57:00,
2013-08-25 03:00:00,55.3,54.5,30.34,WNW,283,0.0,1.0,97,0.00,,---,0.00,VWS V14.01,2013-08-25 07:00:00,
2013-08-25 03:02:00,53.4,52.3,30.35,West,262,0.0,1.0,96,0.00,,---,0.00,VWS V14.01,2013-08-25 07:02:00,
2013-08-25 03:07:00,53.6,52.8,30.35,West,262,0.0,1.0,97,0.00,,---,0.00,VWS V14.01,2013-08-25 07:07:00,
2013-08-25 03:12:00,53.6,52.8,30.35,West,262,0.0,1.0,97,0.00,,---,0.00,VWS V14.01,2013-08-25 07:12:00,
2013-08-25 03:17:00,53.4,52.3,30.35,West,262,0.0,1.0,96,0.00,,---,0.00,VWS V14.01,2013-08-25 07:17:00,
2013-08-25 03:22:00,53.6,52.8,30.35,NNW,347,0.0,1.0,97,0.00,,---,0.00,VWS V14.01,2013-08-25 07:22:00,
2013-08-25 03:27:00,53.6,52.8,30.35,NNW,346,0.0,1.0,97,0.00,,---,0.00,VWS V14.01,2013-08-25 07:27:00,
2013-08-25 03:30:00,53.6,52.5,30.35,West,262,0.0,1.0,96,0.00,,---,0.00,VWS V14.01,2013-08-25 07:30:00,
2013-08-25 03:32:00,53.7,52.9,30.35,NNW,346,0.0,0.0,97,0.00,,---,0.00,VWS V14.01,2013-08-25 07:32:00,
2013-08-25 03:37:00,53.9,53.1,30.35,NNW,346,0.0,0.0,97,0.00,,---,0.00,VWS V14.01,2013-08-25 07:37:00,
2013-08-25 03:42:00,54.0,53.2,30.35,North,352,0.0,0.0,97,0.00,,---,0.00,VWS V14.01,2013-08-25 07:42:00,
2013-08-25 03:47:00,54.0,53.5,30.35,North,352,0.0,0.0,98,0.00,,---,0.00,VWS V14.01,2013-08-25 07:47:00,
2013-08-25 03:52:00,54.0,53.5,30.35,North,352,0.0,0.0,98,0.00,,---,0.00,VWS V14.01,2013-08-25 07:52:00,
2013-08-25 03:57:00,53.9,53.3,30.35,North,352,0.0,0.0,98,0.00,,---,0.00,VWS V14.01,2013-08-25 07:57:00,
2013-08-25 04:00:00,53.4,52.3,30.35,West,262,0.0,1.0,96,0.00,,---,0.00,VWS V14.01,2013-08-25 08:00:00,
2013-08-25 04:02:00,53.9,53.3,30.36,North,352,0.0,0.0,98,0.00,,---,0.00,VWS V14.01,2013-08-25 08:02:00,
2013-08-25 04:07:00,53.8,53.2,30.36,North,352,0.0,0.0,98,0.00,,---,0.00,VWS V14.01,2013-08-25 08:07:00,
2013-08-25 04:12:00,53.6,53.0,30.36,North,352,0.0,0.0,98,0.00,,---,0.00,VWS V14.01,2013-08-25 08:12:00,
2013-08-25 04:17:00,53.4,52.8,30.36,North,352,0.0,1.0,98,0.00,,---,0.00,VWS V14.01,2013-08-25 08:17:00,
2013-08-25 04:22:00,53.4,52.8,30.36,North,352,0.0,1.0,98,0.00,,---,0.00,VWS V14.01,2013-08-25 08:22:00,
2013-08-25 04:27:00,53.4,52.8,30.36,North,352,0.0,1.0,98,0.00,,---,0.00,VWS V14.01,2013-08-25 08:27:00,
2013-08-25 04:30:00,53.6,52.8,30.35,NNW,346,0.0,1.0,97,0.00,,---,0.00,VWS V14.01,2013-08-25 08:30:00,
2013-08-25 04:32:00,53.5,53.0,30.37,NNW,329,0.0,1.0,98,0.00,,---,0.00,VWS V14.01,2013-08-25 08:32:00,
2013-08-25 04:37:00,53.6,53.0,30.37,NNW,329,0.0,1.0,98,0.00,,---,0.00,VWS V14.01,2013-08-25 08:37:00,
2013-08-25 04:42:00,53.5,53.0,30.37,NNW,329,0.0,1.0,98,0.00,,---,0.00,VWS V14.01,2013-08-25 08:42:00,
2013-08-25 04:47:00,53.5,53.0,30.37,NNW,329,0.0,1.0,98,0.00,,---,0.00,VWS V14.01,2013-08-25 08:47:00,
2013-08-25 04:52:00,53.5,53.0,30.37,NNW,336,0.0,1.0,98,0.00,,---,0.00,VWS V14.01,2013-08-25 08:52:00,
2013-08-25 04:57:00,53.4,52.8,30.37,NNW,336,0.0,1.0,98,0.00,,---,0.00,VWS V14.01,2013-08-25 08:57:00,
2013-08-25 05:00:00,53.9,53.3,30.36,North,352,0.0,0.0,98,0.00,,---,0.00,VWS V14.01,2013-08-25 09:00:00,
2013-08-25 05:02:00,53.2,52.7,30.38,NNW,336,0.0,0.0,98,0.00,,---,0.00,VWS V14.01,2013-08-25 09:02:00,
2013-08-25 05:07:00,53.1,52.5,30.38,NNW,336,0.0,1.0,98,0.00,,---,0.00,VWS V14.01,2013-08-25 09:07:00,
2013-08-25 05:11:00,53.2,52.7,30.38,NNW,336,0.0,1.0,98,0.00,,---,0.00,VWS V14.01,2013-08-25 09:11:00,
2013-08-25 05:16:00,53.1,52.5,30.38,North,1,0.0,1.0,98,0.00,,---,0.00,VWS V14.01,2013-08-25 09:16:00,
2013-08-25 05:21:00,52.9,52.3,30.38,NE,41,0.0,1.0,98,0.00,,---,0.00,VWS V14.01,2013-08-25 09:21:00,
2013-08-25 05:26:00,52.9,52.3,30.38,NE,41,0.0,1.0,98,0.00,,---,0.00,VWS V14.01,2013-08-25 09:26:00,
2013-08-25 05:30:00,53.4,52.8,30.37,NNW,329,0.0,1.0,98,0.00,,---,0.00,VWS V14.01,2013-08-25 09:30:00,
2013-08-25 05:31:00,52.8,52.2,30.38,NE,38,0.0,1.0,98,0.00,,---,0.00,VWS V14.01,2013-08-25 09:31:00,
2013-08-25 05:36:00,52.9,52.3,30.38,NE,38,0.0,1.0,98,0.00,,---,0.00,VWS V14.01,2013-08-25 09:36:00,
2013-08-25 05:41:00,52.7,52.2,30.38,NNE,32,0.0,2.0,98,0.00,,---,0.00,VWS V14.01,2013-08-25 09:41:00,
2013-08-25 05:46:00,52.7,52.2,30.39,NNE,31,0.0,2.0,98,0.00,,---,0.00,VWS V14.01,2013-08-25 09:46:00,
2013-08-25 05:51:00,52.7,52.2,30.39,NNW,339,0.0,2.0,98,0.00,,---,0.00,VWS V14.01,2013-08-25 09:51:00,
2013-08-25 05:56:00,52.6,52.0,30.39,NNW,339,0.0,2.0,98,0.00,,---,0.00,VWS V14.01,2013-08-25 09:56:00,
2013-08-25 06:00:00,53.2,52.7,30.37,NNW,336,0.0,1.0,98,0.00,,---,0.00,VWS V14.01,2013-08-25 10:00:00,
2013-08-25 06:01:00,52.5,52.0,30.39,North,354,0.0,0.0,98,0.00,,---,0.00,VWS V14.01,2013-08-25 10:01:00,
2013-08-25 06:06:00,52.4,51.8,30.39,North,354,0.0,1.0,98,0.00,,---,0.00,VWS V14.01,2013-08-25 10:06:00,
2013-08-25 06:11:00,52.4,51.8,30.40,North,352,0.0,1.0,98,0.00,,---,0.00,VWS V14.01,2013-08-25 10:11:00,
2013-08-25 06:16:00,52.4,51.8,30.40,NNW,330,0.0,1.0,98,0.00,,---,0.00,VWS V14.01,2013-08-25 10:16:00,
2013-08-25 06:21:00,52.3,51.8,30.40,NNW,330,0.0,1.0,98,0.00,,---,0.00,VWS V14.01,2013-08-25 10:21:00,
2013-08-25 06:26:00,52.3,51.8,30.40,NNW,330,0.0,1.0,98,0.00,,---,0.00,VWS V14.01,2013-08-25 10:26:00,
2013-08-25 06:30:00,52.9,52.3,30.38,NE,37,0.0,1.0,98,0.00,,---,0.00,VWS V14.01,2013-08-25 10:30:00,
2013-08-25 06:31:00,52.2,51.7,30.40,NNW,330,0.0,0.0,98,0.00,,---,0.00,VWS V14.01,2013-08-25 10:31:00,
2013-08-25 06:36:00,52.2,51.7,30.41,NNW,330,0.0,0.0,98,0.00,,---,0.00,VWS V14.01,2013-08-25 10:36:00,
2013-08-25 06:41:00,52.2,51.7,30.41,NNW,340,0.0,1.0,98,0.00,,---,0.00,VWS V14.01,2013-08-25 10:41:00,
2013-08-25 06:46:00,52.4,51.8,30.41,NE,40,0.0,1.0,98,0.00,,---,0.00,VWS V14.01,2013-08-25 10:46:00,
2013-08-25 06:51:00,52.4,51.8,30.41,West,275,1.0,1.0,98,0.00,,---,0.00,VWS V14.01,2013-08-25 10:51:00,
2013-08-25 06:56:00,52.5,52.0,30.42,NE,53,0.0,1.0,98,0.00,,---,0.00,VWS V14.01,2013-08-25 10:56:00,
2013-08-25 07:00:00,52.6,52.0,30.39,NNW,339,0.0,2.0,98,0.00,,---,0.00,VWS V14.01,2013-08-25 11:00:00,
2013-08-25 07:01:00,52.5,52.0,30.42,NE,53,0.0,0.0,98,0.00,,---,0.00,VWS V14.01,2013-08-25 11:01:00,
2013-08-25 07:06:00,52.6,52.0,30.42,NE,50,1.0,1.0,98,0.00,,---,0.00,VWS V14.01,2013-08-25 11:06:00,
2013-08-25 07:11:00,52.7,52.2,30.42,NE,44,0.0,2.0,98,0.00,,---,0.00,VWS V14.01,2013-08-25 11:11:00,
2013-08-25 07:16:00,52.8,52.2,30.41,NE,44,0.0,2.0,98,0.00,,---,0.00,VWS V14.01,2013-08-25 11:16:00,
2013-08-25 07:21:00,53.0,52.5,30.42,NE,44,0.0,2.0,98,0.00,,---,0.00,VWS V14.01,2013-08-25 11:21:00,
2013-08-25 07:26:00,53.2,52.7,30.42,NNE,29,0.0,2.0,98,0.00,,---,0.00,VWS V14.01,2013-08-25 11:26:00,
2013-08-25 07:30:00,52.2,51.7,30.40,NNW,330,0.0,1.0,98,0.00,,---,0.00,VWS V14.01,2013-08-25 11:30:00,
2013-08-25 07:31:00,53.2,52.7,30.42,NE,41,0.0,0.0,98,0.00,,---,0.00,VWS V14.01,2013-08-25 11:31:00,
2013-08-25 07:36:00,53.3,52.8,30.42,NNE,31,0.0,1.0,98,0.00,,---,0.00,VWS V14.01,2013-08-25 11:36:00,
2013-08-25 07:41:00,53.4,52.8,30.42,NNE,32,0.0,1.0,98,0.00,,---,0.00,VWS V14.01,2013-08-25 11:41:00,
2013-08-25 07:46:00,53.4,52.8,30.42,East,95,0.0,1.0,98,0.00,,---,0.00,VWS V14.01,2013-08-25 11:46:00,
2013-08-25 07:51:00,53.5,53.0,30.42,East,96,0.0,1.0,98,0.00,,---,0.00,VWS V14.01,2013-08-25 11:51:00,
2013-08-25 07:56:00,53.6,53.0,30.42,East,96,0.0,1.0,98,0.00,,---,0.00,VWS V14.01,2013-08-25 11:56:00,
2013-08-25 08:00:00,52.5,52.0,30.42,NE,53,0.0,1.0,98,0.00,,---,0.00,VWS V14.01,2013-08-25 12:00:00,
2013-08-25 08:01:00,53.7,53.2,30.42,ESE,109,0.0,0.0,98,0.00,,---,0.00,VWS V14.01,2013-08-25 12:01:00,
2013-08-25 08:06:00,53.8,53.2,30.42,ESE,105,0.0,0.0,98,0.00,,---,0.00,VWS V14.01,2013-08-25 12:06:00,
2013-08-25 08:11:00,53.9,53.3,30.42,NE,49,0.0,1.0,98,0.00,,---,0.00,VWS V14.01,2013-08-25 12:11:00,
2013-08-25 08:16:00,54.1,53.5,30.42,ENE,60,0.0,1.0,98,0.00,,---,0.00,VWS V14.01,2013-08-25 12:16:00,
2013-08-25 08:21:00,54.3,53.8,30.42,North,350,0.0,1.0,98,0.00,,---,0.00,VWS V14.01,2013-08-25 12:21:00,
2013-08-25 08:26:00,54.1,53.5,30.42,ENE,63,0.0,1.0,98,0.00,,---,0.00,VWS V14.01,2013-08-25 12:26:00,
2013-08-25 08:30:00,53.2,52.7,30.42,NE,41,0.0,3.0,98,0.00,,---,0.00,VWS V14.01,2013-08-25 12:30:00,
2013-08-25 08:31:00,54.1,53.5,30.43,SSE,154,0.0,0.0,98,0.00,,---,0.00,VWS V14.01,2013-08-25 12:31:00,
2013-08-25 08:36:00,54.5,54.0,30.43,SE,133,0.0,1.0,98,0.00,,---,0.00,VWS V14.01,2013-08-25 12:36:00,
2013-08-25 08:41:00,54.5,54.0,30.43,SE,132,0.0,1.0,98,0.00,,---,0.00,VWS V14.01,2013-08-25 12:41:00,
2013-08-25 08:46:00,54.6,54.0,30.42,ESE,111,0.0,1.0,98,0.00,,---,0.00,VWS V14.01,2013-08-25 12:46:00,
2013-08-25 08:51:00,54.6,54.0,30.42,NE,39,0.0,1.0,98,0.00,,---,0.00,VWS V14.01,2013-08-25 12:51:00,
2013-08-25 08:56:00,54.8,54.2,30.42,SE,128,0.0,1.0,98,0.00,,---,0.00,VWS V14.01,2013-08-25 12:56:00,
2013-08-25 09:00:00,53.7,53.2,30.42,East,96,0.0,1.0,98,0.00,,---,0.00,VWS V14.01,2013-08-25 13:00:00,
2013-08-25 09:01:00,55.1,54.5,30.42,SE,128,0.0,1.0,98,0.00,,---,0.00,VWS V14.01,2013-08-25 13:01:00,
2013-08-25 09:06:00,55.1,54.5,30.42,ENE,72,0.0,1.0,98,0.00,,---,0.00,VWS V14.01,2013-08-25 13:06:00,
2013-08-25 09:11:00,55.0,54.5,30.42,NE,34,0.0,2.0,98,0.00,,---,0.00,VWS V14.01,2013-08-25 13:11:00,
2013-08-25 09:16:00,55.1,54.5,30.42,NE,34,0.0,2.0,98,0.00,,---,0.00,VWS V14.01,2013-08-25 13:16:00,
2013-08-25 09:21:00,55.6,55.0,30.42,ENE,70,0.0,2.0,98,0.00,,---,0.00,VWS V14.01,2013-08-25 13:21:00,
2013-08-25 09:26:00,55.8,55.2,30.42,NE,55,0.0,2.0,98,0.00,,---,0.00,VWS V14.01,2013-08-25 13:26:00,
2013-08-25 09:30:00,54.1,53.5,30.43,SSE,154,0.0,1.0,98,0.00,,---,0.00,VWS V14.01,2013-08-25 13:30:00,
2013-08-25 09:31:00,56.3,55.8,30.42,NNE,26,0.0,1.0,98,0.00,,---,0.00,VWS V14.01,2013-08-25 13:31:00,
2013-08-25 09:36:00,56.7,56.1,30.42,NE,38,1.0,1.0,98,0.00,,---,0.00,VWS V14.01,2013-08-25 13:36:00,
2013-08-25 09:41:00,57.3,56.7,30.42,NNE,21,1.0,1.0,98,0.00,,---,0.00,VWS V14.01,2013-08-25 13:41:00,
2013-08-25 09:46:00,57.8,57.2,30.42,NW,318,0.0,1.0,98,0.00,,---,0.00,VWS V14.01,2013-08-25 13:46:00,
2013-08-25 09:51:00,58.7,57.8,30.42,NNE,33,0.0,1.0,97,0.00,,---,0.00,VWS V14.01,2013-08-25 13:51:00,
2013-08-25 09:56:00,59.4,58.5,30.42,ENE,59,1.0,1.0,97,0.00,,---,0.00,VWS V14.01,2013-08-25 13:56:00,
2013-08-25 10:00:00,54.9,54.3,30.42,SE,129,0.0,1.0,98,0.00,,---,0.00,VWS V14.01,2013-08-25 14:00:00,
2013-08-25 10:01:00,60.7,58.7,30.42,ESE,120,0.0,1.0,93,0.00,,---,0.00,VWS V14.01,2013-08-25 14:01:00,
2013-08-25 10:06:00,61.7,58.7,30.41,SE,142,1.0,1.0,90,0.00,,---,0.00,VWS V14.01,2013-08-25 14:06:00,
2013-08-25 10:11:00,62.9,59.0,30.41,NE,51,1.0,2.0,87,0.00,,---,0.00,VWS V14.01,2013-08-25 14:11:00,
2013-08-25 10:16:00,63.5,59.6,30.41,SSE,151,0.0,2.0,87,0.00,,---,0.00,VWS V14.01,2013-08-25 14:16:00,
2013-08-25 10:21:00,64.5,59.6,30.41,East,84,1.0,2.0,84,0.00,,---,0.00,VWS V14.01,2013-08-25 14:21:00,
2013-08-25 10:26:00,65.0,59.0,30.42,NW,319,1.0,3.0,81,0.00,,---,0.00,VWS V14.01,2013-08-25 14:26:00,
2013-08-25 10:30:00,56.2,55.7,30.42,NE,53,0.0,2.0,98,0.00,,---,0.00,VWS V14.01,2013-08-25 14:30:00,
2013-08-25 10:31:00,65.9,59.9,30.42,NNW,332,0.0,0.0,81,0.00,,---,0.00,VWS V14.01,2013-08-25 14:31:00,
2013-08-25 10:36:00,66.6,59.9,30.41,SE,127,0.0,2.0,79,0.00,,---,0.00,VWS V14.01,2013-08-25 14:36:00,
2013-08-25 10:41:00,67.5,59.7,30.41,SE,134,2.0,4.0,76,0.00,,---,0.00,VWS V14.01,2013-08-25 14:41:00,
2013-08-25 10:46:00,68.0,59.4,30.41,ENE,77,0.0,4.0,74,0.00,,---,0.00,VWS V14.01,2013-08-25 14:46:00,
2013-08-25 10:51:00,68.0,59.4,30.41,South,182,0.0,4.0,74,0.00,,---,0.00,VWS V14.01,2013-08-25 14:51:00,
2013-08-25 10:56:00,68.3,58.9,30.41,SE,125,0.0,4.0,72,0.00,,---,0.00,VWS V14.01,2013-08-25 14:56:00,
2013-08-25 11:00:00,60.5,59.1,30.42,East,97,0.0,3.0,95,0.00,,---,0.00,VWS V14.01,2013-08-25 15:00:00,
2013-08-25 11:01:00,68.2,59.2,30.40,SSE,161,1.0,2.0,73,0.00,,---,0.00,VWS V14.01,2013-08-25 15:01:00,
2013-08-25 11:06:00,69.2,59.8,30.40,SSE,167,0.0,2.0,72,0.00,,---,0.00,VWS V14.01,2013-08-25 15:06:00,
2013-08-25 11:11:00,69.7,59.9,30.40,East,82,1.0,3.0,71,0.00,,---,0.00,VWS V14.01,2013-08-25 15:11:00,
2013-08-25 11:16:00,70.6,59.5,30.40,South,177,0.0,3.0,68,0.00,,---,0.00,VWS V14.01,2013-08-25 15:16:00,
2013-08-25 11:21:00,71.2,59.7,30.39,ENE,70,3.0,4.0,67,0.00,,---,0.00,VWS V14.01,2013-08-25 15:21:00,
2013-08-25 11:26:00,70.6,59.5,30.39,South,179,0.0,5.0,68,0.00,,---,0.00,VWS V14.01,2013-08-25 15:26:00,
2013-08-25 11:30:00,65.8,59.8,30.42,SE,144,0.0,3.0,81,0.00,,---,0.00,VWS V14.01,2013-08-25 15:30:00,
2013-08-25 11:31:00,71.2,60.1,30.39,SSE,149,4.0,7.0,68,0.00,,---,0.00,VWS V14.01,2013-08-25 15:31:00,
2013-08-25 11:36:00,71.1,60.0,30.38,East,88,1.0,7.0,68,0.00,,---,0.00,VWS V14.01,2013-08-25 15:36:00,
2013-08-25 11:41:00,71.8,60.7,30.38,SSE,157,1.0,7.0,68,0.00,,---,0.00,VWS V14.01,2013-08-25 15:41:00,
2013-08-25 11:46:00,72.3,60.3,30.38,East,89,0.0,7.0,66,0.00,,---,0.00,VWS V14.01,2013-08-25 15:46:00,
2013-08-25 11:51:00,73.1,60.2,30.38,East,95,1.0,7.0,64,0.00,,---,0.00,VWS V14.01,2013-08-25 15:51:00,
2013-08-25 11:56:00,72.6,61.0,30.38,East,91,1.0,7.0,67,0.00,,---,0.00,VWS V14.01,2013-08-25 15:56:00,
2013-08-25 12:00:00,68.1,59.1,30.40,ENE,76,0.0,4.0,73,0.00,,---,0.00,VWS V14.01,2013-08-25 16:00:00,
2013-08-25 12:01:00,72.8,59.9,30.38,West,265,1.0,4.0,64,0.00,,---,0.00,VWS V14.01,2013-08-25 16:01:00,
2013-08-25 12:06:00,72.9,60.0,30.38,East,96,3.0,5.0,64,0.00,,---,0.00,VWS V14.01,2013-08-25 16:06:00,
2013-08-25 12:11:00,73.8,60.0,30.37,East,91,1.0,6.0,62,0.00,,---,0.00,VWS V14.01,2013-08-25 16:11:00,
2013-08-25 12:16:00,74.4,59.6,30.37,East,79,0.0,6.0,60,0.00,,---,0.00,VWS V14.01,2013-08-25 16:16:00,
2013-08-25 12:21:00,74.7,59.4,30.37,SE,124,0.0,6.0,59,0.00,,---,0.00,VWS V14.01,2013-08-25 16:21:00,
2013-08-25 12:26:00,75.2,60.8,30.36,SSW,198,1.0,6.0,61,0.00,,---,0.00,VWS V14.01,2013-08-25 16:26:00,
2013-08-25 12:30:00,71.2,60.5,30.38,SE,141,2.0,5.0,69,0.00,,---,0.00,VWS V14.01,2013-08-25 16:30:00,
2013-08-25 12:31:00,76.2,60.4,30.36,South,173,1.0,1.0,58,0.00,,---,0.00,VWS V14.01,2013-08-25 16:31:00,
2013-08-25 12:36:00,76.7,59.8,30.36,ESE,107,0.0,3.0,56,0.00,,---,0.00,VWS V14.01,2013-08-25 16:36:00,
2013-08-25 12:41:00,76.6,59.8,30.36,ESE,113,0.0,5.0,56,0.00,,---,0.00,VWS V14.01,2013-08-25 16:41:00,
2013-08-25 12:46:00,77.2,60.3,30.36,SSE,166,1.0,7.0,56,0.00,,---,0.00,VWS V14.01,2013-08-25 16:46:00,
2013-08-25 12:51:00,77.6,60.7,30.36,NE,56,1.0,7.0,56,0.00,,---,0.00,VWS V14.01,2013-08-25 16:51:00,
2013-08-25 12:56:00,78.1,59.1,30.36,South,169,4.0,7.0,52,0.00,,---,0.00,VWS V14.01,2013-08-25 16:56:00,
2013-08-25 13:00:00,72.6,60.2,30.38,SW,232,2.0,7.0,65,0.00,,---,0.00,VWS V14.01,2013-08-25 17:00:00,
2013-08-25 13:01:00,78.2,59.2,30.36,SSE,148,0.0,5.0,52,0.00,,---,0.00,VWS V14.01,2013-08-25 17:01:00,
2013-08-25 13:06:00,78.0,60.0,30.36,SSE,148,1.0,6.0,54,0.00,,---,0.00,VWS V14.01,2013-08-25 17:06:00,
2013-08-25 13:11:00,78.1,59.1,30.35,West,259,0.0,6.0,52,0.00,,---,0.00,VWS V14.01,2013-08-25 17:11:00,
2013-08-25 13:16:00,78.6,60.1,30.35,WSW,243,1.0,6.0,53,0.00,,---,0.00,VWS V14.01,2013-08-25 17:16:00,
2013-08-25 13:21:00,79.6,59.3,30.34,SSE,167,1.0,6.0,50,0.00,,---,0.00,VWS V14.01,2013-08-25 17:21:00,
2013-08-25 13:26:00,79.6,58.2,30.34,West,265,2.0,6.0,48,0.00,,---,0.00,VWS V14.01,2013-08-25 17:26:00,
2013-08-25 13:30:00,76.0,59.2,30.36,SSE,162,0.0,6.0,56,0.00,,---,0.00,VWS V14.01,2013-08-25 17:30:00,
2013-08-25 13:31:00,79.2,56.7,30.34,SSW,196,0.0,2.0,46,0.00,,---,0.00,VWS V14.01,2013-08-25 17:31:00,
2013-08-25 13:36:00,79.7,57.1,30.34,ESE,105,0.0,5.0,46,0.00,,---,0.00,VWS V14.01,2013-08-25 17:36:00,
2013-08-25 13:41:00,79.8,56.0,30.34,SW,221,0.0,5.0,44,0.00,,---,0.00,VWS V14.01,2013-08-25 17:41:00,
2013-08-25 13:46:00,78.6,56.1,30.34,ESE,122,3.0,5.0,46,0.00,,---,0.00,VWS V14.01,2013-08-25 17:46:00,
2013-08-25 13:51:00,77.5,55.7,30.33,East,96,4.0,7.0,47,0.00,,---,0.00,VWS V14.01,2013-08-25 17:51:00,
2013-08-25 13:56:00,78.4,57.1,30.33,SE,136,0.0,7.0,48,0.00,,---,0.00,VWS V14.01,2013-08-25 17:56:00,
2013-08-25 14:00:00,78.3,58.7,30.36,South,169,2.0,7.0,51,0.00,,---,0.00,VWS V14.01,2013-08-25 18:00:00,
2013-08-25 14:01:00,79.0,56.5,30.32,West,272,0.0,1.0,46,0.00,,---,0.00,VWS V14.01,2013-08-25 18:01:00,
2013-08-25 14:06:00,79.3,57.3,30.32,WNW,297,0.0,2.0,47,0.00,,---,0.00,VWS V14.01,2013-08-25 18:06:00,
2013-08-25 14:11:00,79.8,57.2,30.32,SSW,203,3.0,9.0,46,0.00,,---,0.00,VWS V14.01,2013-08-25 18:11:00,
2013-08-25 14:16:00,79.7,55.2,30.32,ESE,117,3.0,9.0,43,0.00,,---,0.00,VWS V14.01,2013-08-25 18:16:00,
2013-08-25 14:21:00,79.6,56.4,30.32,SSW,212,4.0,9.0,45,0.00,,---,0.00,VWS V14.01,2013-08-25 18:21:00,
2013-08-25 14:26:00,80.1,57.5,30.32,SSE,158,2.0,9.0,46,0.00,,---,0.00,VWS V14.01,2013-08-25 18:26:00,
2013-08-25 14:30:00,79.3,56.8,30.34,South,169,2.0,6.0,46,0.00,,---,0.00,VWS V14.01,2013-08-25 18:30:00,
2013-08-25 14:31:00,80.6,56.1,30.32,SW,218,3.0,3.0,43,0.00,,---,0.00,VWS V14.01,2013-08-25 18:31:00,
2013-08-25 14:36:00,80.8,56.9,30.32,SSE,151,1.0,6.0,44,0.00,,---,0.00,VWS V14.01,2013-08-25 18:36:00,
2013-08-25 14:41:00,80.6,56.1,30.31,ESE,123,0.0,6.0,43,0.00,,---,0.00,VWS V14.01,2013-08-25 18:41:00,
2013-08-25 14:46:00,80.1,58.1,30.31,ESE,119,2.0,9.0,47,0.00,,---,0.00,VWS V14.01,2013-08-25 18:46:00,
2013-08-25 14:51:00,80.2,56.3,30.31,ESE,111,0.0,9.0,44,0.00,,---,0.00,VWS V14.01,2013-08-25 18:51:00,
2013-08-25 14:56:00,79.9,57.3,30.31,ENE,69,1.0,9.0,46,0.00,,---,0.00,VWS V14.01,2013-08-25 18:56:00,
2013-08-25 15:00:00,79.0,56.5,30.32,SW,222,2.0,7.0,46,0.00,,---,0.00,VWS V14.01,2013-08-25 19:00:00,
2013-08-25 15:01:00,80.0,56.8,30.31,East,91,2.0,5.0,45,0.00,,---,0.00,VWS V14.01,2013-08-25 19:01:00,
2013-08-25 15:06:00,80.3,57.0,30.31,East,89,2.0,5.0,45,0.00,,---,0.00,VWS V14.01,2013-08-25 19:06:00,
2013-08-25 15:11:00,80.9,57.6,30.31,ESE,120,1.0,5.0,45,0.00,,---,0.00,VWS V14.01,2013-08-25 19:11:00,
2013-08-25 15:16:00,81.9,59.1,30.30,South,181,0.0,5.0,46,0.00,,---,0.00,VWS V14.01,2013-08-25 19:16:00,
2013-08-25 15:21:00,81.9,56.6,30.30,SE,146,1.0,6.0,42,0.00,,---,0.00,VWS V14.01,2013-08-25 19:21:00,
2013-08-25 15:26:00,81.8,57.1,30.31,SW,223,5.0,6.0,43,0.00,,---,0.00,VWS V14.01,2013-08-25 19:26:00,
2013-08-25 15:30:00,81.4,56.8,30.30,ESE,106,0.0,1.0,43,0.00,,---,0.00,VWS V14.01,2013-08-25 19:30:00,
2013-08-25 15:35:00,81.1,56.5,30.30,East,98,0.0,7.0,43,0.00,,---,0.00,VWS V14.01,2013-08-25 19:35:00,
2013-08-25 15:40:00,81.5,56.9,30.30,ESE,123,1.0,7.0,43,0.00,,---,0.00,VWS V14.01,2013-08-25 19:40:00,
2013-08-25 15:45:00,82.3,58.9,30.29,South,184,1.0,7.0,45,0.00,,---,0.00,VWS V14.01,2013-08-25 19:45:00,
2013-08-25 15:50:00,81.9,55.9,30.30,SW,219,2.0,7.0,41,0.00,,---,0.00,VWS V14.01,2013-08-25 19:50:00,
2013-08-25 15:55:00,81.5,56.9,30.29,South,169,0.0,7.0,43,0.00,,---,0.00,VWS V14.01,2013-08-25 19:55:00,
2013-08-25 16:00:00,81.7,57.7,30.29,East,86,4.0,4.0,44,0.00,,---,0.00,VWS V14.01,2013-08-25 20:00:00,
2013-08-25 16:05:00,81.6,58.2,30.28,SSE,150,2.0,5.0,45,0.00,,---,0.00,VWS V14.01,2013-08-25 20:05:00,
2013-08-25 16:10:00,81.4,58.0,30.28,East,81,1.0,5.0,45,0.00,,---,0.00,VWS V14.01,2013-08-25 20:10:00,
2013-08-25 16:15:00,81.4,56.8,30.28,East,80,3.0,5.0,43,0.00,,---,0.00,VWS V14.01,2013-08-25 20:15:00,
2013-08-25 16:20:00,81.7,57.7,30.27,SE,128,1.0,5.0,44,0.00,,---,0.00,VWS V14.01,2013-08-25 20:20:00,
2013-08-25 16:25:00,81.7,57.0,30.27,SE,146,1.0,8.0,43,0.00,,---,0.00,VWS V14.01,2013-08-25 20:25:00,
2013-08-25 16:30:00,81.1,57.8,30.27,SE,137,5.0,5.0,45,0.00,,---,0.00,VWS V14.01,2013-08-25 20:30:00,
2013-08-25 16:35:00,81.9,57.9,30.27,SE,132,0.0,5.0,44,0.00,,---,0.00,VWS V14.01,2013-08-25 20:35:00,
2013-08-25 16:40:00,82.3,58.2,30.27,SW,218,0.0,5.0,44,0.00,,---,0.00,VWS V14.01,2013-08-25 20:40:00,
2013-08-25 16:45:00,82.9,58.1,30.26,SSE,164,2.0,5.0,43,0.00,,---,0.00,VWS V14.01,2013-08-25 20:45:00,
2013-08-25 16:50:00,82.4,57.0,30.26,WSW,239,3.0,7.0,42,0.00,,---,0.00,VWS V14.01,2013-08-25 20:50:00,
2013-08-25 16:55:00,82.1,56.8,30.26,WSW,253,0.0,7.0,42,0.00,,---,0.00,VWS V14.01,2013-08-25 20:55:00,
2013-08-25 17:00:00,82.0,57.3,30.26,WSW,245,2.0,2.0,43,0.00,,---,0.00,VWS V14.01,2013-08-25 21:00:00,
2013-08-25 17:05:00,81.7,57.0,30.25,NNW,340,1.0,5.0,43,0.00,,---,0.00,VWS V14.01,2013-08-25 21:05:00,
2013-08-25 17:10:00,82.0,58.0,30.25,SW,227,0.0,5.0,44,0.00,,---,0.00,VWS V14.01,2013-08-25 21:10:00,
2013-08-25 17:15:00,82.1,56.8,30.25,SSW,208,2.0,5.0,42,0.00,,---,0.00,VWS V14.01,2013-08-25 21:15:00,
2013-08-25 17:20:00,82.4,57.7,30.25,SE,136,0.0,5.0,43,0.00,,---,0.00,VWS V14.01,2013-08-25 21:20:00,
2013-08-25 17:25:00,82.7,57.3,30.24,SSW,198,1.0,5.0,42,0.00,,---,0.00,VWS V14.01,2013-08-25 21:25:00,
2013-08-25 17:30:00,82.8,56.0,30.25,SW,226,2.0,4.0,40,0.00,,---,0.00,VWS V14.01,2013-08-25 21:30:00,
2013-08-25 17:35:00,82.9,56.8,30.24,SW,229,1.0,4.0,41,0.00,,---,0.00,VWS V14.01,2013-08-25 21:35:00,
2013-08-25 17:40:00,82.6,56.5,30.24,SSW,199,2.0,7.0,41,0.00,,---,0.00,VWS V14.01,2013-08-25 21:40:00,
2013-08-25 17:45:00,82.3,56.9,30.25,SW,216,2.0,7.0,42,0.00,,---,0.00,VWS V14.01,2013-08-25 21:45:00,
2013-08-25 17:50:00,82.3,56.9,30.25,South,172,0.0,7.0,42,0.00,,---,0.00,VWS V14.01,2013-08-25 21:50:00,
2013-08-25 17:55:00,82.0,56.0,30.25,North,11,1.0,7.0,41,0.00,,---,0.00,VWS V14.01,2013-08-25 21:55:00,
2013-08-25 18:00:00,81.8,57.1,30.25,SSW,210,0.0,0.0,43,0.00,,---,0.00,VWS V14.01,2013-08-25 22:00:00,
2013-08-25 18:05:00,81.8,55.8,30.25,SW,214,1.0,3.0,41,0.00,,---,0.00,VWS V14.01,2013-08-25 22:05:00,
2013-08-25 18:10:00,81.5,56.2,30.25,SSW,212,1.0,4.0,42,0.00,,---,0.00,VWS V14.01,2013-08-25 22:10:00,
2013-08-25 18:15:00,81.3,55.4,30.24,SW,217,1.0,5.0,41,0.00,,---,0.00,VWS V14.01,2013-08-25 22:15:00,
2013-08-25 18:20:00,81.1,55.9,30.24,SSW,203,1.0,5.0,42,0.00,,---,0.00,VWS V14.01,2013-08-25 22:20:00,
2013-08-25 18:25:00,80.9,56.3,30.23,WSW,238,0.0,5.0,43,0.00,,---,0.00,VWS V14.01,2013-08-25 22:25:00,
2013-08-25 18:30:00,80.7,56.8,30.23,SSW,202,3.0,4.0,44,0.00,,---,0.00,VWS V14.01,2013-08-25 22:30:00,
2013-08-25 18:35:00,80.2,57.6,30.24,SSW,206,0.0,4.0,46,0.00,,---,0.00,VWS V14.01,2013-08-25 22:35:00,
2013-08-25 18:40:00,79.6,58.2,30.24,SSW,208,0.0,4.0,48,0.00,,---,0.00,VWS V14.01,2013-08-25 22:40:00,
2013-08-25 18:45:00,79.1,58.9,30.24,SSW,207,0.0,4.0,50,0.00,,---,0.00,VWS V14.01,2013-08-25 22:45:00,
2013-08-25 18:50:00,78.6,59.5,30.23,South,172,0.0,4.0,52,0.00,,---,0.00,VWS V14.01,2013-08-25 22:50:00,
2013-08-25 18:55:00,78.0,59.0,30.23,SSW,207,0.0,4.0,52,0.00,,---,0.00,VWS V14.01,2013-08-25 22:55:00,
2013-08-25 19:00:00,77.5,59.6,30.23,SSW,205,1.0,1.0,54,0.00,,---,0.00,VWS V14.01,2013-08-25 23:00:00,
2013-08-25 19:05:00,77.2,59.3,30.23,SSW,213,0.0,3.0,54,0.00,,---,0.00,VWS V14.01,2013-08-25 23:05:00,
2013-08-25 19:10:00,76.8,59.4,30.23,SSW,213,0.0,3.0,55,0.00,,---,0.00,VWS V14.01,2013-08-25 23:10:00,
2013-08-25 19:15:00,76.5,59.7,30.23,SW,221,0.0,3.0,56,0.00,,---,0.00,VWS V14.01,2013-08-25 23:15:00,
2013-08-25 19:20:00,76.2,59.9,30.23,SW,214,0.0,3.0,57,0.00,,---,0.00,VWS V14.01,2013-08-25 23:20:00,
2013-08-25 19:25:00,75.9,59.6,30.23,SW,221,0.0,3.0,57,0.00,,---,0.00,VWS V14.01,2013-08-25 23:25:00,
2013-08-25 19:30:00,75.6,59.8,30.23,SSW,206,0.0,0.0,58,0.00,,---,0.00,VWS V14.01,2013-08-25 23:30:00,
2013-08-25 19:35:00,75.3,59.5,30.23,SSW,207,0.0,1.0,58,0.00,,---,0.00,VWS V14.01,2013-08-25 23:35:00,
2013-08-25 19:40:00,74.9,59.6,30.23,SW,220,0.0,1.0,59,0.00,,---,0.00,VWS V14.01,2013-08-25 23:40:00,
2013-08-25 19:45:00,74.5,59.7,30.22,SW,220,0.0,1.0,60,0.00,,---,0.00,VWS V14.01,2013-08-25 23:45:00,
2013-08-25 19:50:00,74.1,59.8,30.22,SW,220,0.0,1.0,61,0.00,,---,0.00,VWS V14.01,2013-08-25 23:50:00,
2013-08-25 19:55:00,73.7,59.4,30.22,SW,220,0.0,1.0,61,0.00,,---,0.00,VWS V14.01,2013-08-25 23:55:00,
2013-08-25 20:00:00,73.4,59.6,30.22,SW,220,0.0,0.0,62,0.00,,---,0.00,VWS V14.01,2013-08-26 00:00:00,
2013-08-25 20:05:00,73.1,59.3,30.22,SW,220,0.0,0.0,62,0.00,,---,0.00,VWS V14.01,2013-08-26 00:05:00,
2013-08-25 20:10:00,72.7,59.8,30.22,SW,220,0.0,0.0,64,0.00,,---,0.00,VWS V14.01,2013-08-26 00:10:00,
2013-08-25 20:15:00,72.1,60.5,30.22,SW,224,0.0,0.0,67,0.00,,---,0.00,VWS V14.01,2013-08-26 00:15:00,
2013-08-25 20:20:00,71.4,61.1,30.23,West,277,0.0,1.0,70,0.00,,---,0.00,VWS V14.01,2013-08-26 00:20:00,
2013-08-25 20:25:00,70.7,61.2,30.23,West,277,0.0,1.0,72,0.00,,---,0.00,VWS V14.01,2013-08-26 00:25:00,
2013-08-25 20:30:00,70.2,61.2,30.23,WNW,287,0.0,0.0,73,0.00,,---,0.00,VWS V14.01,2013-08-26 00:30:00,
2013-08-25 20:35:00,69.9,60.9,30.23,WNW,287,0.0,0.0,73,0.00,,---,0.00,VWS V14.01,2013-08-26 00:35:00,
2013-08-25 20:40:00,69.8,60.4,30.23,SW,227,0.0,1.0,72,0.00,,---,0.00,VWS V14.01,2013-08-26 00:40:00,
2013-08-25 20:45:00,69.9,60.5,30.23,SW,219,0.0,1.0,72,0.00,,---,0.00,VWS V14.01,2013-08-26 00:45:00,
2013-08-25 20:50:00,69.8,60.4,30.23,SW,232,0.0,1.0,72,0.00,,---,0.00,VWS V14.01,2013-08-26 00:50:00,
2013-08-25 20:55:00,70.1,59.9,30.23,SW,214,0.0,2.0,70,0.00,,---,0.00,VWS V14.01,2013-08-26 00:55:00,
2013-08-25 21:00:00,70.2,60.0,30.23,SW,214,0.0,0.0,70,0.00,,---,0.00,VWS V14.01,2013-08-26 01:00:00,
2013-08-25 21:05:00,69.9,60.5,30.23,SW,214,0.0,0.0,72,0.00,,---,0.00,VWS V14.01,2013-08-26 01:05:00,
2013-08-25 21:10:00,69.4,61.1,30.23,WNW,285,0.0,1.0,75,0.00,,---,0.00,VWS V14.01,2013-08-26 01:10:00,
2013-08-25 21:15:00,68.2,61.8,30.23,NW,321,0.0,3.0,80,0.00,,---,0.00,VWS V14.01,2013-08-26 01:15:00,
2013-08-25 21:20:00,67.6,61.6,30.23,NW,321,0.0,3.0,81,0.00,,---,0.00,VWS V14.01,2013-08-26 01:20:00,
2013-08-25 21:25:00,67.2,60.8,30.23,NW,310,0.0,3.0,80,0.00,,---,0.00,VWS V14.01,2013-08-26 01:25:00,
2013-08-25 21:30:00,67.1,60.7,30.23,NW,311,0.0,0.0,80,0.00,,---,0.00,VWS V14.01,2013-08-26 01:30:00,
2013-08-25 21:35:00,67.1,60.7,30.23,NW,311,0.0,0.0,80,0.00,,---,0.00,VWS V14.01,2013-08-26 01:35:00,
2013-08-25 21:40:00,67.1,60.0,30.23,NW,311,0.0,0.0,78,0.00,,---,0.00,VWS V14.01,2013-08-26 01:40:00,
2013-08-25 21:45:00,67.2,60.8,30.24,NW,309,0.0,0.0,80,0.00,,---,0.00,VWS V14.01,2013-08-26 01:45:00,
2013-08-25 21:50:00,66.9,61.2,30.24,NW,309,0.0,0.0,82,0.00,,---,0.00,VWS V14.01,2013-08-26 01:50:00,
2013-08-25 21:55:00,66.7,60.7,30.24,NW,309,0.0,0.0,81,0.00,,---,0.00,VWS V14.01,2013-08-26 01:55:00,
2013-08-25 22:00:00,67.5,59.7,30.24,NE,43,0.0,0.0,76,0.00,,---,0.00,VWS V14.01,2013-08-26 02:00:00,
2013-08-25 22:05:00,67.9,59.7,30.24,NE,43,0.0,1.0,75,0.00,,---,0.00,VWS V14.01,2013-08-26 02:05:00,
2013-08-25 22:10:00,67.9,60.1,30.23,NE,43,0.0,1.0,76,0.00,,---,0.00,VWS V14.01,2013-08-26 02:10:00,
2013-08-25 22:15:00,67.7,59.9,30.23,NE,43,0.0,1.0,76,0.00,,---,0.00,VWS V14.01,2013-08-26 02:15:00,
2013-08-25 22:20:00,67.2,60.1,30.23,NW,324,1.0,1.0,78,0.00,,---,0.00,VWS V14.01,2013-08-26 02:20:00,
2013-08-25 22:25:00,66.3,60.7,30.24,NW,319,0.0,2.0,82,0.00,,---,0.00,VWS V14.01,2013-08-26 02:25:00,
2013-08-25 22:30:00,65.4,60.1,30.24,NW,325,0.0,0.0,83,0.00,,---,0.00,VWS V14.01,2013-08-26 02:30:00,
2013-08-25 22:35:00,64.9,60.3,30.24,NW,320,0.0,0.0,85,0.00,,---,0.00,VWS V14.01,2013-08-26 02:35:00,
2013-08-25 22:40:00,64.5,59.9,30.24,NW,315,0.0,0.0,85,0.00,,---,0.00,VWS V14.01,2013-08-26 02:40:00,
2013-08-25 22:45:00,64.3,59.7,30.24,NW,314,0.0,1.0,85,0.00,,---,0.00,VWS V14.01,2013-08-26 02:45:00,
2013-08-25 22:50:00,64.5,59.9,30.24,NW,313,0.0,1.0,85,0.00,,---,0.00,VWS V14.01,2013-08-26 02:50:00,
2013-08-25 22:55:00,64.5,59.9,30.24,NW,309,0.0,1.0,85,0.00,,---,0.00,VWS V14.01,2013-08-26 02:55:00,
2013-08-25 23:00:00,64.4,59.8,30.24,NW,309,0.0,0.0,85,0.00,,---,0.00,VWS V14.01,2013-08-26 03:00:00,
2013-08-25 23:05:00,64.3,59.7,30.23,NW,309,0.0,0.0,85,0.00,,---,0.00,VWS V14.01,2013-08-26 03:05:00,
2013-08-25 23:10:00,64.2,59.6,30.23,NW,310,1.0,1.0,85,0.00,,---,0.00,VWS V14.01,2013-08-26 03:10:00,
2013-08-25 23:15:00,63.9,59.6,30.23,NW,314,0.0,2.0,86,0.00,,---,0.00,VWS V14.01,2013-08-26 03:15:00,
2013-08-25 23:20:00,63.8,59.9,30.23,NW,314,0.0,2.0,87,0.00,,---,0.00,VWS V14.01,2013-08-26 03:20:00,
2013-08-25 23:25:00,63.6,59.7,30.23,NW,314,0.0,2.0,87,0.00,,---,0.00,VWS V14.01,2013-08-26 03:25:00,
2013-08-25 23:30:00,63.5,59.6,30.23,NW,311,0.0,0.0,87,0.00,,---,0.00,VWS V14.01,2013-08-26 03:30:00,
2013-08-25 23:35:00,63.6,59.7,30.22,NW,311,0.0,0.0,87,0.00,,---,0.00,VWS V14.01,2013-08-26 03:35:00,
2013-08-25 23:40:00,63.7,59.8,30.23,NW,311,0.0,0.0,87,0.00,,---,0.00,VWS V14.01,2013-08-26 03:40:00,
2013-08-25 23:45:00,64.0,60.1,30.23,NW,311,0.0,0.0,87,0.00,,---,0.00,VWS V14.01,2013-08-26 03:45:00,
2013-08-25 23:50:00,63.9,60.3,30.23,NW,311,0.0,1.0,88,0.00,,---,0.00,VWS V14.01,2013-08-26 03:50:00,
2013-08-25 23:55:00,63.8,60.2,30.22,NW,312,0.0,1.0,88,0.00,,---,0.00,VWS V14.01,2013-08-26 03:55:00,